ESMK/KID METAR and TAF weather

Enter ICAO airport designator
Station Type Date Time Source
ESMK METAR 2018/12/11 00:20 UTC NOAA

ESMK 110020Z AUTO 33010KT 9999 FEW013/// SCT016/// OVC020/// 03/// Q1005


Station Type Date Time Source
ESMK Decoded METAR 2018/12/11 00:20 UTC NOAA

Kristianstad / Everod, Sweden (ESMK) 55-55N 014-05E
Dec 10, 2018 - 07:20 PM EST / 2018.12.11 0020 UTC
Wind: from the NNW (330 degrees) at 12 MPH (10 KT):0
Visibility: greater than 7 mile(s):0
Sky conditions: overcast
Temperature: 37 F (3 C)
Pressure (altimeter): 29.68 in. Hg (1005 hPa)
ob: ESMK 110020Z AUTO 33010KT 9999 FEW013/// SCT016/// OVC020/// 03/// Q1005
cycle: 0

Station Type Date Time Source
ESMK TAF 2015/03/18 12:33 UTC NOAA

TAF ESMK 181130Z 1812/1824 13012KT CAVOK


Example: see airport list